createdAt,value
2018-12-27T00:08:07.375Z,0.50
2018-12-27T00:10:55.623Z,0.50
2018-12-27T00:19:20.496Z,0.50
2018-12-27T00:22:08.651Z,0.50
2018-12-27T00:24:49.167Z,0.50
2018-12-27T00:27:30.227Z,0.50
2018-12-27T00:30:11.116Z,1.10
2018-12-27T00:32:52.353Z,1.20
2018-12-27T00:35:33.907Z,0.50
2018-12-27T00:38:15.176Z,0.50
2018-12-27T00:40:56.360Z,0.50
2018-12-27T00:43:36.996Z,0.50
2018-12-27T00:46:20.633Z,0.50
2018-12-27T00:48:49.886Z,0.50
2018-12-27T01:05:37.210Z,0.50
2018-12-27T01:08:25.301Z,0.50
2018-12-27T01:14:01.645Z,0.60
2018-12-27T01:16:49.887Z,0.60
2018-12-27T01:19:38.067Z,1.90
2018-12-27T01:40:03.238Z,0.60
2018-12-27T01:45:56.953Z,0.60
2018-12-27T01:48:37.524Z,0.60
2018-12-27T01:51:18.408Z,0.60
2018-12-27T01:53:58.877Z,0.60
2018-12-27T01:56:39.942Z,1.40
2018-12-27T01:59:20.881Z,0.50
2018-12-27T02:02:02.081Z,0.40
2018-12-27T02:04:43.617Z,0.30
2018-12-27T02:10:23.763Z,0.30
2018-12-27T02:13:04.651Z,0.30
2018-12-27T02:15:45.541Z,0.40
2018-12-27T02:21:24.946Z,0.40
2018-12-27T02:24:05.876Z,2.10
2018-12-27T02:32:57.462Z,0.20
2018-12-27T02:35:38.805Z,1.10
2018-12-27T02:38:20.238Z,0.10
2018-12-27T02:41:01.019Z,0.10
2018-12-27T02:43:42.478Z,0.20
2018-12-27T02:49:36.585Z,0.20
2018-12-27T02:52:17.251Z,0.20
2018-12-27T02:54:59.214Z,0.20
2018-12-27T02:57:40.250Z,0.10
2018-12-27T03:00:20.826Z,0.30
2018-12-27T03:03:01.544Z,0.10
2018-12-27T03:05:42.901Z,0.50
2018-12-27T03:08:23.354Z,0.40
2018-12-27T03:20:16.611Z,0.40
2018-12-27T03:26:10.509Z,0.50
2018-12-27T03:28:51.217Z,0.50
2018-12-27T03:31:31.852Z,2.60
2018-12-27T03:34:12.684Z,0.50
2018-12-27T03:36:53.113Z,0.90
2018-12-27T03:39:35.718Z,0.40
2018-12-27T03:45:29.140Z,0.40
2018-12-27T03:48:10.103Z,0.40
2018-12-27T03:50:50.631Z,0.60
2018-12-27T03:53:31.643Z,0.60
2018-12-27T03:56:12.641Z,0.40
2018-12-27T03:58:53.784Z,0.60
2018-12-27T04:01:34.570Z,0.70
2018-12-27T04:04:15.260Z,0.50
2018-12-27T04:06:56.032Z,0.40
2018-12-27T04:09:36.779Z,1.80
2018-12-27T04:12:17.703Z,0.50
2018-12-27T04:14:46.688Z,0.50
2018-12-27T04:20:22.805Z,0.50
2018-12-27T04:23:03.979Z,0.50
2018-12-27T04:25:44.603Z,0.40
2018-12-27T04:28:25.527Z,0.40
2018-12-27T04:31:07.017Z,1.40
2018-12-27T04:33:47.358Z,0.50
2018-12-27T04:36:27.884Z,0.50
2018-12-27T04:39:08.984Z,0.50
2018-12-27T04:41:48.456Z,1.90
2018-12-27T04:44:37.075Z,0.50
2018-12-27T04:47:25.242Z,0.40
2018-12-27T04:50:13.359Z,0.30
2018-12-27T04:53:01.385Z,0.40
2018-12-27T04:55:49.473Z,0.40
2018-12-27T04:58:37.488Z,0.50
2018-12-27T05:01:25.680Z,1.10
2018-12-27T05:04:18.016Z,0.50
2018-12-27T05:07:04.130Z,0.50
2018-12-27T05:09:52.417Z,0.60
2018-12-27T05:12:40.515Z,1.00
2018-12-27T05:15:28.609Z,1.30
2018-12-27T05:18:36.127Z,0.60
2018-12-27T05:21:24.454Z,1.40
2018-12-27T05:24:05.816Z,1.10
2018-12-27T05:29:29.039Z,1.20
2018-12-27T05:32:09.911Z,0.60
2018-12-27T05:34:51.190Z,0.60
2018-12-27T05:37:32.370Z,0.50
2018-12-27T05:40:13.720Z,0.50
2018-12-27T05:42:54.215Z,0.50
2018-12-27T05:45:35.361Z,0.60
2018-12-27T05:48:15.773Z,0.60
2018-12-27T05:50:56.770Z,0.60
2018-12-27T05:53:37.383Z,0.60
2018-12-27T05:56:17.897Z,0.60
2018-12-27T05:58:58.530Z,0.50
2018-12-27T06:01:27.699Z,0.40
2018-12-27T06:04:16.029Z,0.50
2018-12-27T06:07:04.230Z,0.50
2018-12-27T06:09:52.371Z,1.40
2018-12-27T06:12:40.399Z,0.50
2018-12-27T06:18:16.336Z,0.30
2018-12-27T06:21:04.433Z,0.40
2018-12-27T06:23:45.525Z,1.40
2018-12-27T06:26:26.366Z,0.40
2018-12-27T06:29:06.804Z,1.20
2018-12-27T06:31:47.584Z,0.70
2018-12-27T06:34:28.943Z,0.60
2018-12-27T06:37:10.039Z,0.80
2018-12-27T06:39:50.608Z,1.30
2018-12-27T06:42:31.506Z,1.30
2018-12-27T06:45:12.599Z,0.70
2018-12-27T06:47:53.211Z,0.50
2018-12-27T06:50:34.462Z,1.30
2018-12-27T06:53:14.821Z,1.50
2018-12-27T06:55:55.783Z,0.40
2018-12-27T07:01:49.129Z,0.40
2018-12-27T07:04:29.580Z,0.40
2018-12-27T07:07:10.029Z,0.50
2018-12-27T07:09:51.063Z,0.50
2018-12-27T07:12:31.809Z,1.80
2018-12-27T07:15:13.191Z,0.50
2018-12-27T07:17:53.964Z,0.40
2018-12-27T07:20:34.709Z,1.20
2018-12-27T07:23:15.725Z,0.40
2018-12-27T07:25:57.083Z,0.40
2018-12-27T07:28:38.316Z,0.80
2018-12-27T07:31:07.351Z,1.00
2018-12-27T07:33:36.314Z,0.40
2018-12-27T07:36:05.299Z,0.40
2018-12-27T07:38:35.056Z,0.40
2018-12-27T07:41:04.648Z,0.50
2018-12-27T07:43:34.239Z,0.50
2018-12-27T07:46:10.626Z,0.50
2018-12-27T07:48:34.139Z,0.50
2018-12-27T07:51:03.220Z,0.50
2018-12-27T07:53:32.488Z,0.40
2018-12-27T07:56:01.493Z,0.40
2018-12-27T07:58:30.364Z,0.50
2018-12-27T08:00:59.708Z,0.50
2018-12-27T08:03:28.648Z,0.50
2018-12-27T08:05:57.958Z,0.50
2018-12-27T08:08:27.195Z,0.50
2018-12-27T08:10:56.392Z,0.60
2018-12-27T08:13:26.015Z,0.60
2018-12-27T08:15:55.879Z,0.60
2018-12-27T08:18:25.471Z,0.60
2018-12-27T08:20:54.918Z,0.60
2018-12-27T08:23:24.298Z,0.60
2018-12-27T08:25:53.701Z,0.60
2018-12-27T08:28:22.681Z,0.60
2018-12-27T08:30:51.983Z,0.60
2018-12-27T08:33:20.996Z,0.60
2018-12-27T08:35:50.374Z,0.50
2018-12-27T08:38:19.724Z,0.50
2018-12-27T08:40:48.999Z,0.60
2018-12-27T08:43:18.776Z,0.70
2018-12-27T08:45:47.790Z,0.70
2018-12-27T08:48:17.008Z,0.70
2018-12-27T08:50:46.583Z,0.80
2018-12-27T08:53:15.834Z,0.80
2018-12-27T08:55:44.740Z,0.90
2018-12-27T08:58:13.835Z,1.00
2018-12-27T09:00:43.244Z,1.00
2018-12-27T09:03:12.302Z,1.10
2018-12-27T09:05:41.278Z,1.20
2018-12-27T09:08:10.531Z,1.20
2018-12-27T09:10:39.936Z,1.30
2018-12-27T09:13:09.401Z,1.30
2018-12-27T09:15:38.377Z,1.30
2018-12-27T09:18:08.037Z,1.40
2018-12-27T09:20:37.446Z,1.40
2018-12-27T09:23:06.665Z,1.40
2018-12-27T09:25:36.183Z,1.30
2018-12-27T09:28:05.211Z,1.40
2018-12-27T09:30:36.743Z,1.50
2018-12-27T09:33:05.755Z,1.50
2018-12-27T09:35:35.339Z,1.60
2018-12-27T09:38:04.962Z,1.60
2018-12-27T09:40:34.411Z,1.70
2018-12-27T09:43:03.760Z,1.70
2018-12-27T09:45:32.767Z,1.80
2018-12-27T09:48:14.264Z,1.70
2018-12-27T09:50:43.316Z,1.80
2018-12-27T09:53:12.408Z,1.80
2018-12-27T09:55:41.668Z,1.80
2018-12-27T09:58:10.647Z,1.90
2018-12-27T10:00:39.975Z,1.90
2018-12-27T10:03:12.351Z,2.00
2018-12-27T10:05:41.499Z,2.00
2018-12-27T10:08:11.027Z,2.10
2018-12-27T10:10:40.487Z,2.10
2018-12-27T10:13:09.642Z,2.10
2018-12-27T10:15:38.712Z,2.10
2018-12-27T10:18:07.702Z,2.10
2018-12-27T10:20:36.997Z,2.10
2018-12-27T10:23:06.458Z,2.10
2018-12-27T10:25:35.799Z,2.00
2018-12-27T10:28:05.243Z,1.80
2018-12-27T10:30:34.606Z,1.70
2018-12-27T10:33:03.556Z,1.60
2018-12-27T10:35:32.856Z,1.70
2018-12-27T10:38:02.433Z,1.80
2018-12-27T10:40:32.713Z,1.90
2018-12-27T10:43:01.896Z,2.00
2018-12-27T10:45:31.317Z,2.10
2018-12-27T10:48:00.640Z,2.20
2018-12-27T10:50:29.955Z,2.20
2018-12-27T10:53:01.317Z,2.20
2018-12-27T10:55:30.540Z,2.20
2018-12-27T10:57:59.694Z,2.30
2018-12-27T11:00:28.863Z,2.90
2018-12-27T11:02:58.121Z,2.30
2018-12-27T11:05:27.252Z,2.30
2018-12-27T11:07:56.319Z,2.30
2018-12-27T11:10:25.635Z,2.30
2018-12-27T11:12:54.744Z,2.30
2018-12-27T11:15:23.754Z,2.40
2018-12-27T11:17:53.023Z,2.40
2018-12-27T11:20:22.018Z,2.40
2018-12-27T11:22:51.226Z,2.50
2018-12-27T11:25:20.162Z,2.50
2018-12-27T11:27:49.800Z,2.50
2018-12-27T11:30:18.903Z,2.40
2018-12-27T11:32:48.001Z,2.50
2018-12-27T11:35:16.972Z,2.40
2018-12-27T11:37:45.946Z,2.40
2018-12-27T11:40:14.851Z,2.40
2018-12-27T11:42:43.906Z,2.40
2018-12-27T11:45:12.973Z,2.50
2018-12-27T11:47:41.935Z,2.40
2018-12-27T11:50:10.867Z,2.50
2018-12-27T11:52:39.987Z,2.40
2018-12-27T11:55:09.393Z,2.40
2018-12-27T11:57:38.724Z,2.40
2018-12-27T12:00:09.531Z,2.30
2018-12-27T12:02:39.265Z,2.30
2018-12-27T12:05:08.387Z,2.40
2018-12-27T12:07:38.260Z,2.40
2018-12-27T12:10:07.744Z,2.50
2018-12-27T12:12:37.367Z,2.60
2018-12-27T12:15:07.706Z,2.60
2018-12-27T12:17:37.913Z,2.60
2018-12-27T12:20:07.023Z,2.70
2018-12-27T12:22:36.078Z,2.80
2018-12-27T12:25:05.333Z,2.80
2018-12-27T12:27:34.745Z,2.80
2018-12-27T12:30:03.952Z,2.80
2018-12-27T12:32:33.091Z,2.80
2018-12-27T12:35:02.220Z,2.80
2018-12-27T12:37:31.497Z,2.80
2018-12-27T12:40:00.584Z,2.90
2018-12-27T12:42:32.779Z,2.90
2018-12-27T12:45:00.347Z,2.90
2018-12-27T12:47:29.466Z,2.90
2018-12-27T12:49:58.971Z,2.90
2018-12-27T12:52:28.196Z,2.80
2018-12-27T12:54:57.315Z,2.80
2018-12-27T12:57:26.349Z,2.80
2018-12-27T12:59:55.336Z,2.40
2018-12-27T13:02:24.419Z,2.30
2018-12-27T13:04:53.760Z,2.40
2018-12-27T13:07:23.091Z,2.40
2018-12-27T13:09:52.095Z,2.40
2018-12-27T13:12:21.147Z,2.40
2018-12-27T13:14:50.206Z,2.40
2018-12-27T13:17:19.511Z,2.40
2018-12-27T13:19:48.612Z,2.50
2018-12-27T13:22:17.732Z,2.50
2018-12-27T13:24:46.722Z,2.50
2018-12-27T13:27:15.693Z,2.50
2018-12-27T13:29:45.064Z,2.50
2018-12-27T13:32:14.032Z,2.50
2018-12-27T13:34:43.251Z,2.50
2018-12-27T13:37:12.559Z,2.50
2018-12-27T13:39:41.905Z,2.50
2018-12-27T13:42:11.171Z,2.40
2018-12-27T13:44:40.766Z,2.40
2018-12-27T13:47:12.908Z,2.40
2018-12-27T13:49:42.448Z,2.40
2018-12-27T13:52:11.769Z,2.30
2018-12-27T13:54:41.480Z,2.30
2018-12-27T13:57:10.501Z,2.40
2018-12-27T13:59:39.978Z,2.30
2018-12-27T14:02:09.196Z,2.20
2018-12-27T14:04:38.171Z,2.20
2018-12-27T14:07:08.075Z,2.20
2018-12-27T14:09:37.141Z,2.20
2018-12-27T14:12:06.446Z,2.20
2018-12-27T14:14:35.607Z,2.20
2018-12-27T14:17:06.971Z,2.20
2018-12-27T14:19:35.952Z,2.10
2018-12-27T14:22:05.108Z,2.20
2018-12-27T14:24:34.258Z,2.10
2018-12-27T14:27:03.252Z,2.10
2018-12-27T14:29:32.673Z,2.10
2018-12-27T14:32:01.884Z,2.00
2018-12-27T14:34:31.059Z,2.10
2018-12-27T14:37:00.984Z,2.00
2018-12-27T14:39:31.927Z,2.00
2018-12-27T14:42:01.035Z,1.90
2018-12-27T14:44:30.103Z,1.90
2018-12-27T14:46:59.104Z,1.90
2018-12-27T14:49:34.223Z,1.90
2018-12-27T14:52:03.467Z,1.90
2018-12-27T14:54:32.495Z,1.90
2018-12-27T14:57:01.662Z,1.70
2018-12-27T14:59:30.865Z,1.70
2018-12-27T15:02:00.083Z,1.70
2018-12-27T15:04:29.009Z,1.70
2018-12-27T15:06:57.954Z,1.70
2018-12-27T15:09:27.400Z,1.70
2018-12-27T15:11:56.470Z,1.70
2018-12-27T15:14:25.723Z,1.70
2018-12-27T15:16:55.825Z,1.70
2018-12-27T15:19:24.833Z,1.60
2018-12-27T15:21:55.462Z,1.60
2018-12-27T15:24:25.001Z,1.60
2018-12-27T15:26:54.044Z,1.50
2018-12-27T15:29:23.044Z,1.50
2018-12-27T15:31:52.158Z,1.50
2018-12-27T15:34:21.305Z,1.50
2018-12-27T15:36:54.286Z,1.50
2018-12-27T15:39:21.147Z,1.50
2018-12-27T15:41:58.165Z,1.50
2018-12-27T15:44:27.023Z,1.40
2018-12-27T15:46:56.010Z,1.40
2018-12-27T15:49:24.885Z,1.40
2018-12-27T15:51:53.906Z,1.40
2018-12-27T15:54:22.932Z,1.40
2018-12-27T15:56:51.875Z,1.40
2018-12-27T15:59:24.327Z,1.40
2018-12-27T16:01:53.460Z,1.40
2018-12-27T16:04:22.651Z,1.40
2018-12-27T16:06:51.925Z,1.40
2018-12-27T16:09:21.111Z,1.40
2018-12-27T16:11:50.251Z,1.30
2018-12-27T16:14:19.127Z,1.30
2018-12-27T16:16:48.025Z,1.30
2018-12-27T16:19:17.328Z,1.30
2018-12-27T16:21:46.184Z,1.30
2018-12-27T16:24:15.990Z,1.30
2018-12-27T16:26:45.511Z,1.20
2018-12-27T16:29:14.492Z,1.30
2018-12-27T16:31:43.500Z,1.30
2018-12-27T16:34:12.451Z,1.30
2018-12-27T16:36:42.013Z,1.30
2018-12-27T16:39:11.442Z,1.20
2018-12-27T16:41:41.212Z,1.20
2018-12-27T16:44:10.495Z,1.20
2018-12-27T16:46:39.725Z,1.20
2018-12-27T16:49:08.989Z,1.20
2018-12-27T16:51:38.193Z,1.30
2018-12-27T16:54:11.777Z,1.30
2018-12-27T16:56:40.738Z,1.20
2018-12-27T16:59:10.276Z,1.20
2018-12-27T17:01:39.632Z,1.20
2018-12-27T17:04:10.673Z,1.10
2018-12-27T17:06:39.733Z,1.10
2018-12-27T17:09:08.955Z,1.10
2018-12-27T17:11:38.066Z,1.10
2018-12-27T17:14:07.409Z,1.00
2018-12-27T17:16:36.913Z,1.00
2018-12-27T17:19:06.087Z,1.00
2018-12-27T17:21:35.355Z,1.00
2018-12-27T17:24:04.670Z,1.00
2018-12-27T17:26:33.598Z,1.00
2018-12-27T17:29:02.585Z,1.00
2018-12-27T17:31:32.031Z,0.90
2018-12-27T17:34:01.261Z,0.90
2018-12-27T17:36:30.481Z,0.80
2018-12-27T17:38:59.631Z,0.90
2018-12-27T17:41:28.611Z,1.00
2018-12-27T17:43:57.637Z,1.00
2018-12-27T17:46:26.686Z,1.00
2018-12-27T17:48:57.062Z,1.00
2018-12-27T17:51:26.722Z,1.00
2018-12-27T17:53:56.079Z,1.00
2018-12-27T17:56:25.662Z,1.00
2018-12-27T17:58:54.627Z,1.00
2018-12-27T18:01:29.713Z,1.00
2018-12-27T18:04:07.852Z,1.00
2018-12-27T18:06:37.054Z,0.90
2018-12-27T18:09:08.018Z,0.90
2018-12-27T18:11:45.284Z,0.70
2018-12-27T18:14:14.303Z,0.70
2018-12-27T18:16:44.838Z,0.70
2018-12-27T18:19:15.543Z,0.60
2018-12-27T18:21:44.835Z,0.50
2018-12-27T18:24:14.095Z,0.50
2018-12-27T18:26:43.333Z,0.50
2018-12-27T18:29:12.614Z,0.50
2018-12-27T18:31:41.719Z,0.50
2018-12-27T18:34:11.006Z,0.40
2018-12-27T18:36:40.038Z,0.30
2018-12-27T18:39:09.055Z,0.30
2018-12-27T18:41:38.019Z,0.20
2018-12-27T18:44:06.977Z,0.20
2018-12-27T18:46:36.010Z,0.10
2018-12-27T18:49:05.044Z,0.10
2018-12-27T18:51:34.280Z,0.20
2018-12-27T18:54:03.422Z,0.10
2018-12-27T18:56:32.725Z,0.10
2018-12-27T18:59:01.694Z,0.10
2018-12-27T19:01:30.757Z,0.20
2018-12-27T19:04:00.012Z,0.20
2018-12-27T19:06:29.079Z,0.10
2018-12-27T19:08:58.126Z,0.10
2018-12-27T19:12:02.524Z,0.00
2018-12-27T19:14:31.454Z,0.00
2018-12-27T19:17:01.331Z,0.10
2018-12-27T19:19:30.453Z,0.10
2018-12-27T19:22:12.383Z,0.10
2018-12-27T19:24:41.393Z,0.10
2018-12-27T19:27:10.468Z,0.00
2018-12-27T19:29:40.093Z,0.00
2018-12-27T19:32:09.308Z,0.00
2018-12-27T19:34:38.271Z,0.10
2018-12-27T19:37:07.294Z,0.20
2018-12-27T19:39:36.161Z,0.20
2018-12-27T19:42:05.972Z,0.30
2018-12-27T19:44:35.336Z,0.30
2018-12-27T19:47:04.374Z,0.40
2018-12-27T19:49:34.024Z,0.50
2018-12-27T19:52:03.232Z,0.40
2018-12-27T19:54:34.694Z,0.50
2018-12-27T19:57:03.956Z,0.50
2018-12-27T19:59:33.290Z,0.40
2018-12-27T20:02:02.613Z,0.40
2018-12-27T20:04:34.354Z,0.50
2018-12-27T20:07:03.634Z,0.50
2018-12-27T20:09:32.635Z,0.60
2018-12-27T20:12:02.013Z,0.60
2018-12-27T20:14:45.238Z,0.60
2018-12-27T20:17:14.387Z,0.70
2018-12-27T20:19:43.325Z,0.70
2018-12-27T20:22:12.612Z,0.70
2018-12-27T20:24:41.603Z,0.70
2018-12-27T20:27:10.463Z,0.70
2018-12-27T20:29:39.522Z,0.70
2018-12-27T20:32:08.449Z,0.70
2018-12-27T20:34:37.391Z,0.60
2018-12-27T20:37:06.476Z,0.60
2018-12-27T20:39:35.752Z,0.60
2018-12-27T20:42:04.735Z,0.60
2018-12-27T20:44:37.022Z,0.50
2018-12-27T20:47:06.077Z,0.50
2018-12-27T20:49:35.935Z,0.50
2018-12-27T20:52:05.431Z,0.60
2018-12-27T20:54:34.558Z,0.60
2018-12-27T20:57:03.543Z,0.60
2018-12-27T20:59:32.723Z,0.60
2018-12-27T21:02:01.995Z,0.50
2018-12-27T21:04:31.222Z,0.60
2018-12-27T21:07:00.517Z,0.60
2018-12-27T21:09:29.767Z,0.60
2018-12-27T21:11:59.221Z,0.60
2018-12-27T21:14:33.834Z,0.60
2018-12-27T21:17:02.828Z,0.60
2018-12-27T21:19:31.688Z,0.60
2018-12-27T21:22:00.540Z,0.50
2018-12-27T21:24:29.470Z,0.40
2018-12-27T21:26:58.409Z,0.30
2018-12-27T21:29:27.411Z,0.20
2018-12-27T21:31:56.299Z,0.20
2018-12-27T21:34:25.241Z,0.30
2018-12-27T21:36:54.298Z,0.20
2018-12-27T21:39:23.414Z,0.20
2018-12-27T21:41:52.842Z,0.30
2018-12-27T21:44:21.787Z,0.30
2018-12-27T21:46:50.769Z,0.30
2018-12-27T21:49:20.011Z,0.40
2018-12-27T21:51:49.225Z,0.40
2018-12-27T21:54:18.452Z,0.50
2018-12-27T21:56:47.331Z,0.60
2018-12-27T21:59:16.206Z,0.60
2018-12-27T22:01:45.477Z,0.70
2018-12-27T22:04:14.365Z,0.70
2018-12-27T22:06:43.625Z,0.70
2018-12-27T22:09:12.647Z,0.70
2018-12-27T22:11:41.938Z,0.80
2018-12-27T22:14:11.059Z,0.80
2018-12-27T22:16:40.308Z,0.80
2018-12-27T22:19:09.310Z,0.80
2018-12-27T22:21:38.574Z,0.80
2018-12-27T22:24:07.848Z,0.80
2018-12-27T22:26:37.683Z,0.90
2018-12-27T22:29:06.939Z,0.90
2018-12-27T22:31:36.188Z,0.80
2018-12-27T22:34:05.249Z,0.90
2018-12-27T22:36:34.494Z,0.90
2018-12-27T22:39:05.176Z,0.90
2018-12-27T22:41:34.290Z,0.90
2018-12-27T22:44:03.483Z,0.90
2018-12-27T22:46:32.378Z,0.80
2018-12-27T22:49:01.665Z,0.90
2018-12-27T22:51:30.606Z,0.90
2018-12-27T22:53:59.767Z,0.90
2018-12-27T22:56:28.747Z,0.90
2018-12-27T22:58:57.626Z,0.90
2018-12-27T23:01:27.190Z,0.90
2018-12-27T23:03:56.703Z,0.90
2018-12-27T23:06:25.702Z,0.90
2018-12-27T23:08:54.707Z,1.00
2018-12-27T23:11:23.934Z,1.00
2018-12-27T23:13:53.207Z,1.00
2018-12-27T23:16:22.484Z,1.00
2018-12-27T23:18:51.875Z,1.00
2018-12-27T23:21:20.866Z,1.00
2018-12-27T23:23:50.091Z,1.00
2018-12-27T23:26:19.242Z,1.10
2018-12-27T23:28:48.959Z,1.10
2018-12-27T23:31:17.909Z,1.10
2018-12-27T23:33:47.131Z,1.10
2018-12-27T23:36:16.800Z,1.10
2018-12-27T23:38:50.307Z,1.10
2018-12-27T23:41:16.575Z,1.10
2018-12-27T23:43:45.563Z,1.10
2018-12-27T23:46:14.746Z,1.00
2018-12-27T23:48:43.651Z,1.00
2018-12-27T23:51:12.665Z,1.00
2018-12-27T23:53:41.687Z,1.00
2018-12-27T23:56:10.602Z,1.00
2018-12-27T23:58:40.091Z,1.00
